sensor_id;sensor_type;location;lat;lon;timestamp;pressure;altitude;pressure_sealevel;temperature;humidity
29163;BME280;20331;53.144;8.208;2023-10-08T00:00:06;102241.72;;;13.84;100.00
29163;BME280;20331;53.144;8.208;2023-10-08T00:05:47;102244.44;;;13.78;100.00
29163;BME280;20331;53.144;8.208;2023-10-08T00:11:11;102247.13;;;13.75;100.00
29163;BME280;20331;53.144;8.208;2023-10-08T00:16:33;102267.97;;;13.73;100.00
29163;BME280;20331;53.144;8.208;2023-10-08T00:21:55;102276.66;;;13.72;100.00
29163;BME280;20331;53.144;8.208;2023-10-08T00:27:26;102276.59;;;13.74;100.00
29163;BME280;20331;53.144;8.208;2023-10-08T00:32:47;102280.97;;;13.73;100.00
29163;BME280;20331;53.144;8.208;2023-10-08T00:38:09;102281.91;;;13.69;100.00
29163;BME280;20331;53.144;8.208;2023-10-08T00:43:41;102296.66;;;13.69;100.00
29163;BME280;20331;53.144;8.208;2023-10-08T00:49:06;102311.38;;;13.71;100.00
29163;BME280;20331;53.144;8.208;2023-10-08T00:54:43;102290.41;;;13.77;100.00
29163;BME280;20331;53.144;8.208;2023-10-08T01:00:25;102303.25;;;13.88;100.00
29163;BME280;20331;53.144;8.208;2023-10-08T01:05:54;102304.22;;;13.82;100.00
29163;BME280;20331;53.144;8.208;2023-10-08T01:11:23;102298.94;;;13.85;100.00
29163;BME280;20331;53.144;8.208;2023-10-08T01:17:09;102292.88;;;13.85;100.00
29163;BME280;20331;53.144;8.208;2023-10-08T01:22:34;102295.63;;;13.79;100.00
29163;BME280;20331;53.144;8.208;2023-10-08T01:27:57;102298.25;;;13.76;100.00
29163;BME280;20331;53.144;8.208;2023-10-08T01:33:24;102286.00;;;13.81;100.00
29163;BME280;20331;53.144;8.208;2023-10-08T01:38:49;102293.69;;;13.87;100.00
29163;BME280;20331;53.144;8.208;2023-10-08T01:44:11;102310.06;;;13.92;100.00
29163;BME280;20331;53.144;8.208;2023-10-08T01:49:33;102304.81;;;13.95;100.00
29163;BME280;20331;53.144;8.208;2023-10-08T01:54:55;102276.22;;;13.92;100.00
29163;BME280;20331;53.144;8.208;2023-10-08T02:00:18;102278.03;;;13.88;100.00
29163;BME280;20331;53.144;8.208;2023-10-08T02:05:47;102302.34;;;13.89;100.00
29163;BME280;20331;53.144;8.208;2023-10-08T02:11:09;102312.81;;;13.84;100.00
29163;BME280;20331;53.144;8.208;2023-10-08T02:16:32;102312.81;;;13.86;100.00
29163;BME280;20331;53.144;8.208;2023-10-08T02:21:56;102320.72;;;13.80;100.00
29163;BME280;20331;53.144;8.208;2023-10-08T02:27:17;102303.28;;;13.85;100.00
29163;BME280;20331;53.144;8.208;2023-10-08T02:32:39;102319.78;;;13.84;100.00
29163;BME280;20331;53.144;8.208;2023-10-08T02:38:04;102333.63;;;13.86;100.00
29163;BME280;20331;53.144;8.208;2023-10-08T02:43:27;102345.81;;;13.84;100.00
29163;BME280;20331;53.144;8.208;2023-10-08T02:48:51;102334.75;;;13.73;100.00
29163;BME280;20331;53.144;8.208;2023-10-08T02:54:14;102358.94;;;13.78;100.00
29163;BME280;20331;53.144;8.208;2023-10-08T02:59:40;102369.41;;;13.75;100.00
29163;BME280;20331;53.144;8.208;2023-10-08T03:05:02;102362.44;;;13.77;100.00
29163;BME280;20331;53.144;8.208;2023-10-08T03:10:29;102367.56;;;13.80;100.00
29163;BME280;20331;53.144;8.208;2023-10-08T03:15:54;102359.84;;;13.75;100.00
29163;BME280;20331;53.144;8.208;2023-10-08T03:21:24;102368.53;;;13.74;100.00
29163;BME280;20331;53.144;8.208;2023-10-08T03:26:59;102398.16;;;13.67;100.00
29163;BME280;20331;53.144;8.208;2023-10-08T03:32:50;102402.66;;;13.58;100.00
29163;BME280;20331;53.144;8.208;2023-10-08T03:38:17;102409.56;;;13.59;100.00
29163;BME280;20331;53.144;8.208;2023-10-08T03:43:49;102417.50;;;13.51;100.00
29163;BME280;20331;53.144;8.208;2023-10-08T03:49:14;102412.34;;;13.48;100.00
29163;BME280;20331;53.144;8.208;2023-10-08T03:54:42;102412.41;;;13.45;100.00
29163;BME280;20331;53.144;8.208;2023-10-08T04:00:11;102422.84;;;13.44;100.00
29163;BME280;20331;53.144;8.208;2023-10-08T04:05:53;102432.34;;;13.45;100.00
29163;BME280;20331;53.144;8.208;2023-10-08T04:11:36;102429.72;;;13.48;100.00
29163;BME280;20331;53.144;8.208;2023-10-08T04:17:14;102425.47;;;13.41;100.00
29163;BME280;20331;53.144;8.208;2023-10-08T04:22:43;102454.06;;;13.42;100.00
29163;BME280;20331;53.144;8.208;2023-10-08T04:28:05;102450.59;;;13.42;100.00
29163;BME280;20331;53.144;8.208;2023-10-08T04:33:28;102439.34;;;13.41;100.00
29163;BME280;20331;53.144;8.208;2023-10-08T04:38:55;102447.13;;;13.41;100.00
29163;BME280;20331;53.144;8.208;2023-10-08T04:44:23;102467.06;;;13.41;100.00
29163;BME280;20331;53.144;8.208;2023-10-08T04:49:47;102461.09;;;13.36;100.00
29163;BME280;20331;53.144;8.208;2023-10-08T04:55:09;102489.56;;;13.45;100.00
29163;BME280;20331;53.144;8.208;2023-10-08T05:00:37;102502.56;;;13.45;100.00
29163;BME280;20331;53.144;8.208;2023-10-08T05:06:15;102508.63;;;13.45;100.00
29163;BME280;20331;53.144;8.208;2023-10-08T05:11:51;102502.63;;;13.42;100.00
29163;BME280;20331;53.144;8.208;2023-10-08T05:17:13;102491.38;;;13.40;100.00
29163;BME280;20331;53.144;8.208;2023-10-08T05:22:38;102487.16;;;13.33;100.00
29163;BME280;20331;53.144;8.208;2023-10-08T05:27:59;102481.94;;;13.33;100.00
29163;BME280;20331;53.144;8.208;2023-10-08T05:33:30;102475.88;;;13.32;100.00
29163;BME280;20331;53.144;8.208;2023-10-08T05:39:12;102462.13;;;13.26;100.00
29163;BME280;20331;53.144;8.208;2023-10-08T05:44:46;102491.53;;;13.28;100.00
29163;BME280;20331;53.144;8.208;2023-10-08T05:50:27;102489.91;;;13.21;100.00
29163;BME280;20331;53.144;8.208;2023-10-08T05:55:48;102512.44;;;13.22;100.00
29163;BME280;20331;53.144;8.208;2023-10-08T06:01:22;102512.38;;;13.25;100.00
29163;BME280;20331;53.144;8.208;2023-10-08T06:07:01;102516.72;;;13.24;100.00
29163;BME280;20331;53.144;8.208;2023-10-08T06:12:34;102514.00;;;13.32;100.00
29163;BME280;20331;53.144;8.208;2023-10-08T06:18:11;102521.69;;;13.41;100.00
29163;BME280;20331;53.144;8.208;2023-10-08T06:23:36;102508.63;;;13.45;100.00
29163;BME280;20331;53.144;8.208;2023-10-08T06:28:58;102508.66;;;13.44;100.00
29163;BME280;20331;53.144;8.208;2023-10-08T06:34:20;102524.25;;;13.44;100.00
29163;BME280;20331;53.144;8.208;2023-10-08T06:39:43;102548.63;;;13.37;100.00
29163;BME280;20331;53.144;8.208;2023-10-08T06:45:10;102548.63;;;13.37;100.00
29163;BME280;20331;53.144;8.208;2023-10-08T06:50:36;102545.13;;;13.38;100.00
29163;BME280;20331;53.144;8.208;2023-10-08T06:55:57;102555.50;;;13.41;100.00
29163;BME280;20331;53.144;8.208;2023-10-08T07:01:25;102570.16;;;13.46;100.00
29163;BME280;20331;53.144;8.208;2023-10-08T07:06:46;102586.69;;;13.44;100.00
29163;BME280;20331;53.144;8.208;2023-10-08T07:12:09;102583.19;;;13.45;100.00
29163;BME280;20331;53.144;8.208;2023-10-08T07:17:35;102560.56;;;13.50;100.00
29163;BME280;20331;53.144;8.208;2023-10-08T07:23:02;102562.28;;;13.51;100.00
29163;BME280;20331;53.144;8.208;2023-10-08T07:28:23;102609.06;;;13.54;100.00
29163;BME280;20331;53.144;8.208;2023-10-08T07:33:48;102601.16;;;13.61;100.00
29163;BME280;20331;53.144;8.208;2023-10-08T07:39:19;102601.97;;;13.65;100.00
29163;BME280;20331;53.144;8.208;2023-10-08T07:44:53;102603.56;;;13.75;100.00
29163;BME280;20331;53.144;8.208;2023-10-08T07:50:16;102606.16;;;13.76;99.86
29163;BME280;20331;53.144;8.208;2023-10-08T07:55:38;102598.25;;;13.81;99.65
29163;BME280;20331;53.144;8.208;2023-10-08T08:01:03;102617.16;;;13.92;100.00
29163;BME280;20331;53.144;8.208;2023-10-08T08:06:27;102634.50;;;13.94;100.00
29163;BME280;20331;53.144;8.208;2023-10-08T08:11:49;102629.31;;;13.93;100.00
29163;BME280;20331;53.144;8.208;2023-10-08T08:17:11;102631.81;;;14.00;99.28
29163;BME280;20331;53.144;8.208;2023-10-08T08:22:35;102643.81;;;14.09;99.01
29163;BME280;20331;53.144;8.208;2023-10-08T08:28:02;102648.09;;;14.13;98.64
29163;BME280;20331;53.144;8.208;2023-10-08T08:33:27;102667.06;;;14.23;97.81
29163;BME280;20331;53.144;8.208;2023-10-08T08:39:08;102680.88;;;14.26;97.81
29163;BME280;20331;53.144;8.208;2023-10-08T08:44:35;102686.97;;;14.25;96.46
29163;BME280;20331;53.144;8.208;2023-10-08T08:50:04;102677.41;;;14.27;96.50
29163;BME280;20331;53.144;8.208;2023-10-08T08:55:31;102655.81;;;14.21;97.24
29163;BME280;20331;53.144;8.208;2023-10-08T09:00:54;102655.81;;;14.19;96.35
29163;BME280;20331;53.144;8.208;2023-10-08T09:06:17;102675.72;;;14.22;95.15
29163;BME280;20331;53.144;8.208;2023-10-08T09:11:42;102665.19;;;14.32;92.18
29163;BME280;20331;53.144;8.208;2023-10-08T09:17:05;102668.47;;;14.43;92.44
29163;BME280;20331;53.144;8.208;2023-10-08T09:22:27;102665.94;;;14.40;89.94
29163;BME280;20331;53.144;8.208;2023-10-08T09:27:55;102692.81;;;14.42;89.61
29163;BME280;20331;53.144;8.208;2023-10-08T09:33:17;102734.25;;;14.57;88.90
29163;BME280;20331;53.144;8.208;2023-10-08T09:38:39;102693.41;;;14.58;87.37
29163;BME280;20331;53.144;8.208;2023-10-08T09:44:01;102703.81;;;14.58;88.79
29163;BME280;20331;53.144;8.208;2023-10-08T09:55:10;102710.53;;;14.74;84.90
29163;BME280;20331;53.144;8.208;2023-10-08T10:00:32;102695.53;;;14.86;85.91
29163;BME280;20331;53.144;8.208;2023-10-08T10:05:54;102702.22;;;15.01;86.01
29163;BME280;20331;53.144;8.208;2023-10-08T10:11:25;102702.03;;;15.11;84.91
29163;BME280;20331;53.144;8.208;2023-10-08T10:16:49;102692.16;;;15.26;81.49
29163;BME280;20331;53.144;8.208;2023-10-08T10:22:31;102668.59;;;15.32;81.50
29163;BME280;20331;53.144;8.208;2023-10-08T10:33:16;102725.81;;;15.41;82.04
29163;BME280;20331;53.144;8.208;2023-10-08T10:38:38;102717.13;;;15.39;84.00
29163;BME280;20331;53.144;8.208;2023-10-08T10:44:03;102699.50;;;15.53;80.23
29163;BME280;20331;53.144;8.208;2023-10-08T10:49:29;102703.88;;;15.52;80.62
29163;BME280;20331;53.144;8.208;2023-10-08T10:55:02;102728.16;;;15.56;79.94
29163;BME280;20331;53.144;8.208;2023-10-08T11:00:44;102722.88;;;15.57;80.44
29163;BME280;20331;53.144;8.208;2023-10-08T11:06:06;102721.94;;;15.61;81.73
29163;BME280;20331;53.144;8.208;2023-10-08T11:11:28;102712.38;;;15.60;81.28
29163;BME280;20331;53.144;8.208;2023-10-08T11:16:50;102707.06;;;15.65;80.16
29163;BME280;20331;53.144;8.208;2023-10-08T11:22:12;102679.06;;;15.71;79.01
29163;BME280;20331;53.144;8.208;2023-10-08T11:27:44;102676.47;;;15.73;80.01
29163;BME280;20331;53.144;8.208;2023-10-08T11:33:07;102668.47;;;15.79;75.03
29163;BME280;20331;53.144;8.208;2023-10-08T11:38:41;102672.50;;;15.95;75.97
29163;BME280;20331;53.144;8.208;2023-10-08T11:44:03;102660.91;;;16.05;77.82
29163;BME280;20331;53.144;8.208;2023-10-08T11:49:25;102625.28;;;16.02;77.14
29163;BME280;20331;53.144;8.208;2023-10-08T11:54:47;102605.28;;;16.01;75.11
29163;BME280;20331;53.144;8.208;2023-10-08T12:00:13;102607.03;;;16.01;75.25
29163;BME280;20331;53.144;8.208;2023-10-08T12:05:45;102617.34;;;16.07;73.77
29163;BME280;20331;53.144;8.208;2023-10-08T12:11:12;102631.09;;;16.15;73.50
29163;BME280;20331;53.144;8.208;2023-10-08T12:16:34;102650.81;;;16.27;73.67
29163;BME280;20331;53.144;8.208;2023-10-08T12:22:01;102676.91;;;16.28;71.87
29163;BME280;20331;53.144;8.208;2023-10-08T12:27:24;102664.84;;;16.24;74.60
29163;BME280;20331;53.144;8.208;2023-10-08T12:32:46;102653.25;;;16.34;73.14
29163;BME280;20331;53.144;8.208;2023-10-08T12:38:08;102655.72;;;16.40;74.71
29163;BME280;20331;53.144;8.208;2023-10-08T12:43:30;102669.84;;;16.33;72.95
29163;BME280;20331;53.144;8.208;2023-10-08T12:48:53;102655.75;;;16.39;71.59
29163;BME280;20331;53.144;8.208;2023-10-08T12:54:16;102660.13;;;16.38;73.08
29163;BME280;20331;53.144;8.208;2023-10-08T12:59:43;102613.19;;;16.34;75.33
29163;BME280;20331;53.144;8.208;2023-10-08T13:05:09;102631.69;;;16.25;75.99
29163;BME280;20331;53.144;8.208;2023-10-08T13:10:37;102645.72;;;16.22;75.02
29163;BME280;20331;53.144;8.208;2023-10-08T13:16:02;102645.56;;;16.28;72.51
29163;BME280;20331;53.144;8.208;2023-10-08T13:21:28;102643.94;;;16.24;75.33
29163;BME280;20331;53.144;8.208;2023-10-08T13:26:50;102664.44;;;16.39;72.39
29163;BME280;20331;53.144;8.208;2023-10-08T13:32:11;102644.59;;;16.32;77.06
29163;BME280;20331;53.144;8.208;2023-10-08T13:37:39;102646.94;;;16.43;71.51
29163;BME280;20331;53.144;8.208;2023-10-08T13:43:01;102646.84;;;16.47;74.14
29163;BME280;20331;53.144;8.208;2023-10-08T13:48:23;102620.72;;;16.47;74.01
29163;BME280;20331;53.144;8.208;2023-10-08T13:53:50;102629.38;;;16.49;69.02
29163;BME280;20331;53.144;8.208;2023-10-08T13:59:14;102635.44;;;16.51;73.84
29163;BME280;20331;53.144;8.208;2023-10-08T14:04:37;102630.25;;;16.48;74.09
29163;BME280;20331;53.144;8.208;2023-10-08T14:10:02;102646.72;;;16.53;73.78
29163;BME280;20331;53.144;8.208;2023-10-08T14:15:29;102652.63;;;16.60;74.11
29163;BME280;20331;53.144;8.208;2023-10-08T14:20:55;102646.38;;;16.65;70.17
29163;BME280;20331;53.144;8.208;2023-10-08T14:26:17;102633.34;;;16.64;72.96
29163;BME280;20331;53.144;8.208;2023-10-08T14:31:43;102625.38;;;16.68;64.45
29163;BME280;20331;53.144;8.208;2023-10-08T14:37:10;102621.78;;;16.72;71.79
29163;BME280;20331;53.144;8.208;2023-10-08T14:42:50;102628.91;;;16.67;72.58
29163;BME280;20331;53.144;8.208;2023-10-08T14:48:19;102609.75;;;16.67;73.46
29163;BME280;20331;53.144;8.208;2023-10-08T14:53:41;102592.31;;;16.67;73.53
29163;BME280;20331;53.144;8.208;2023-10-08T14:59:06;102597.44;;;16.70;72.42
29163;BME280;20331;53.144;8.208;2023-10-08T15:04:27;102589.59;;;16.70;70.55
29163;BME280;20331;53.144;8.208;2023-10-08T15:09:56;102589.78;;;16.64;70.97
29163;BME280;20331;53.144;8.208;2023-10-08T15:15:19;102569.69;;;16.66;71.01
29163;BME280;20331;53.144;8.208;2023-10-08T15:20:41;102569.75;;;16.63;72.37
29163;BME280;20331;53.144;8.208;2023-10-08T15:26:04;102553.28;;;16.60;72.44
29163;BME280;20331;53.144;8.208;2023-10-08T15:31:26;102542.16;;;16.53;73.78
29163;BME280;20331;53.144;8.208;2023-10-08T15:36:49;102550.16;;;16.47;72.44
29163;BME280;20331;53.144;8.208;2023-10-08T15:42:10;102551.16;;;16.42;71.45
29163;BME280;20331;53.144;8.208;2023-10-08T15:47:33;102531.16;;;16.41;74.33
29163;BME280;20331;53.144;8.208;2023-10-08T15:52:55;102521.94;;;16.26;77.74
29163;BME280;20331;53.144;8.208;2023-10-08T15:58:17;102549.94;;;16.21;79.06
29163;BME280;20331;53.144;8.208;2023-10-08T16:03:39;102529.28;;;16.12;79.18
29163;BME280;20331;53.144;8.208;2023-10-08T16:09:01;102505.72;;;16.15;75.10
29163;BME280;20331;53.144;8.208;2023-10-08T16:14:23;102517.00;;;16.16;77.17
29163;BME280;20331;53.144;8.208;2023-10-08T16:19:44;102527.53;;;16.13;76.87
29163;BME280;20331;53.144;8.208;2023-10-08T16:25:07;102522.59;;;16.02;78.82
29163;BME280;20331;53.144;8.208;2023-10-08T16:30:29;102517.38;;;16.02;76.51
29163;BME280;20331;53.144;8.208;2023-10-08T16:35:54;102493.09;;;15.98;78.39
29163;BME280;20331;53.144;8.208;2023-10-08T16:41:17;102471.28;;;15.99;77.73
29163;BME280;20331;53.144;8.208;2023-10-08T16:46:39;102491.31;;;15.99;78.10
29163;BME280;20331;53.144;8.208;2023-10-08T16:52:02;102500.19;;;15.92;79.52
29163;BME280;20331;53.144;8.208;2023-10-08T16:57:25;102522.81;;;15.93;77.50
29163;BME280;20331;53.144;8.208;2023-10-08T17:02:46;102504.69;;;15.87;81.06
29163;BME280;20331;53.144;8.208;2023-10-08T17:08:08;102502.25;;;15.79;80.59
29163;BME280;20331;53.144;8.208;2023-10-08T17:13:30;102489.25;;;15.78;81.30
29163;BME280;20331;53.144;8.208;2023-10-08T17:18:52;102471.03;;;15.75;80.47
29163;BME280;20331;53.144;8.208;2023-10-08T17:24:17;102465.94;;;15.70;78.77
29163;BME280;20331;53.144;8.208;2023-10-08T17:29:40;102471.13;;;15.72;80.57
29163;BME280;20331;53.144;8.208;2023-10-08T17:35:03;102481.72;;;15.66;81.43
29163;BME280;20331;53.144;8.208;2023-10-08T17:40:28;102498.28;;;15.65;81.45
29163;BME280;20331;53.144;8.208;2023-10-08T17:45:50;102494.75;;;15.67;80.71
29163;BME280;20331;53.144;8.208;2023-10-08T17:51:14;102472.03;;;15.71;81.65
29163;BME280;20331;53.144;8.208;2023-10-08T17:56:38;102452.19;;;15.64;82.50
29163;BME280;20331;53.144;8.208;2023-10-08T18:01:59;102462.56;;;15.67;82.06
29163;BME280;20331;53.144;8.208;2023-10-08T18:07:21;102467.78;;;15.67;81.38
29163;BME280;20331;53.144;8.208;2023-10-08T18:12:43;102463.44;;;15.66;82.20
29163;BME280;20331;53.144;8.208;2023-10-08T18:18:05;102441.75;;;15.64;83.14
29163;BME280;20331;53.144;8.208;2023-10-08T18:23:31;102421.91;;;15.58;82.00
29163;BME280;20331;53.144;8.208;2023-10-08T18:28:53;102430.50;;;15.60;83.68
29163;BME280;20331;53.144;8.208;2023-10-08T18:34:16;102403.72;;;15.54;84.93
29163;BME280;20331;53.144;8.208;2023-10-08T18:39:38;102411.75;;;15.46;86.70
29163;BME280;20331;53.144;8.208;2023-10-08T18:45:00;102406.56;;;15.45;86.40
29163;BME280;20331;53.144;8.208;2023-10-08T18:50:22;102393.63;;;15.39;86.98
29163;BME280;20331;53.144;8.208;2023-10-08T18:55:44;102383.28;;;15.36;87.27
29163;BME280;20331;53.144;8.208;2023-10-08T19:01:14;102377.19;;;15.35;88.63
29163;BME280;20331;53.144;8.208;2023-10-08T19:06:35;102373.81;;;15.32;87.72
29163;BME280;20331;53.144;8.208;2023-10-08T19:11:57;102384.28;;;15.30;88.18
29163;BME280;20331;53.144;8.208;2023-10-08T19:17:22;102393.94;;;15.27;88.02
29163;BME280;20331;53.144;8.208;2023-10-08T19:22:44;102369.59;;;15.26;89.58
29163;BME280;20331;53.144;8.208;2023-10-08T19:28:07;102361.91;;;15.22;88.69
29163;BME280;20331;53.144;8.208;2023-10-08T19:33:29;102362.94;;;15.14;86.90
29163;BME280;20331;53.144;8.208;2023-10-08T19:38:52;102366.31;;;15.20;88.71
29163;BME280;20331;53.144;8.208;2023-10-08T19:44:14;102314.19;;;15.17;89.19
29163;BME280;20331;53.144;8.208;2023-10-08T19:49:36;102295.94;;;15.17;88.46
29163;BME280;20331;53.144;8.208;2023-10-08T19:54:58;102274.44;;;15.08;87.66
29163;BME280;20331;53.144;8.208;2023-10-08T20:00:20;102274.50;;;15.05;88.27
29163;BME280;20331;53.144;8.208;2023-10-08T20:05:47;102280.63;;;15.04;87.69
29163;BME280;20331;53.144;8.208;2023-10-08T20:11:09;102266.69;;;15.05;87.49
29163;BME280;20331;53.144;8.208;2023-10-08T20:16:31;102258.25;;;14.96;87.12
29163;BME280;20331;53.144;8.208;2023-10-08T20:21:53;102265.84;;;15.05;89.24
29163;BME280;20331;53.144;8.208;2023-10-08T20:27:15;102259.81;;;15.03;87.03
29163;BME280;20331;53.144;8.208;2023-10-08T20:32:40;102253.72;;;15.02;87.85
29163;BME280;20331;53.144;8.208;2023-10-08T20:38:05;102231.31;;;14.95;86.21
29163;BME280;20331;53.144;8.208;2023-10-08T20:43:27;102237.28;;;15.00;86.38
29163;BME280;20331;53.144;8.208;2023-10-08T20:48:50;102216.41;;;15.00;87.49
29163;BME280;20331;53.144;8.208;2023-10-08T20:54:12;102233.84;;;14.98;86.15
29163;BME280;20331;53.144;8.208;2023-10-08T20:59:36;102221.75;;;14.96;85.70
29163;BME280;20331;53.144;8.208;2023-10-08T21:04:58;102208.84;;;14.91;85.84
29163;BME280;20331;53.144;8.208;2023-10-08T21:10:20;102200.09;;;14.92;85.67
29163;BME280;20331;53.144;8.208;2023-10-08T21:15:44;102201.94;;;14.90;86.05
29163;BME280;20331;53.144;8.208;2023-10-08T21:21:07;102188.06;;;14.88;87.97
29163;BME280;20331;53.144;8.208;2023-10-08T21:26:29;102204.53;;;14.90;87.21
29163;BME280;20331;53.144;8.208;2023-10-08T21:31:51;102204.69;;;14.84;87.03
29163;BME280;20331;53.144;8.208;2023-10-08T21:37:13;102210.75;;;14.83;88.05
29163;BME280;20331;53.144;8.208;2023-10-08T21:42:37;102188.13;;;14.85;88.61
29163;BME280;20331;53.144;8.208;2023-10-08T21:47:58;102184.66;;;14.86;89.68
29163;BME280;20331;53.144;8.208;2023-10-08T21:53:22;102173.59;;;14.77;88.88
29163;BME280;20331;53.144;8.208;2023-10-08T21:58:44;102169.31;;;14.74;89.02
29163;BME280;20331;53.144;8.208;2023-10-08T22:04:07;102166.88;;;14.68;89.26
29163;BME280;20331;53.144;8.208;2023-10-08T22:09:29;102169.78;;;14.56;89.08
29163;BME280;20331;53.144;8.208;2023-10-08T22:14:58;102180.97;;;14.60;89.88
29163;BME280;20331;53.144;8.208;2023-10-08T22:20:27;102160.91;;;14.63;89.94
29163;BME280;20331;53.144;8.208;2023-10-08T22:25:58;102133.09;;;14.64;90.64
29163;BME280;20331;53.144;8.208;2023-10-08T22:31:20;102140.94;;;14.64;90.66
29163;BME280;20331;53.144;8.208;2023-10-08T22:36:46;102127.84;;;14.65;91.17
29163;BME280;20331;53.144;8.208;2023-10-08T22:42:33;102110.53;;;14.64;90.20
29163;BME280;20331;53.144;8.208;2023-10-08T22:47:56;102105.41;;;14.61;91.01
29163;BME280;20331;53.144;8.208;2023-10-08T22:53:20;102075.16;;;14.56;91.26
29163;BME280;20331;53.144;8.208;2023-10-08T22:58:42;102078.69;;;14.53;91.55
29163;BME280;20331;53.144;8.208;2023-10-08T23:04:05;102063.00;;;14.55;91.88
29163;BME280;20331;53.144;8.208;2023-10-08T23:09:28;102041.50;;;14.48;91.00
29163;BME280;20331;53.144;8.208;2023-10-08T23:14:53;102029.19;;;14.53;90.55
29163;BME280;20331;53.144;8.208;2023-10-08T23:20:15;102011.88;;;14.51;89.54
29163;BME280;20331;53.144;8.208;2023-10-08T23:25:37;101999.56;;;14.57;89.64
29163;BME280;20331;53.144;8.208;2023-10-08T23:31:01;101996.19;;;14.54;89.23
29163;BME280;20331;53.144;8.208;2023-10-08T23:36:24;101996.16;;;14.55;89.00
29163;BME280;20331;53.144;8.208;2023-10-08T23:41:49;101995.28;;;14.55;89.52
29163;BME280;20331;53.144;8.208;2023-10-08T23:47:11;102008.25;;;14.56;90.20
29163;BME280;20331;53.144;8.208;2023-10-08T23:52:33;102023.81;;;14.59;91.02
29163;BME280;20331;53.144;8.208;2023-10-08T23:57:57;102025.69;;;14.54;91.01
